sensor_id;sensor_type;location;lat;lon;timestamp;pressure;altitude;pressure_sealevel;temperature;humidity
48848;BME280;36611;51.638;5.784;2022-12-20T00:01:25;101302.09;;;14.09;58.13
48848;BME280;36611;51.638;5.784;2022-12-20T00:03:54;101287.50;;;14.12;57.86
48848;BME280;36611;51.638;5.784;2022-12-20T00:06:21;101282.88;;;14.14;58.08
48848;BME280;36611;51.638;5.784;2022-12-20T00:08:56;101272.06;;;14.14;58.06
48848;BME280;36611;51.638;5.784;2022-12-20T00:11:23;101283.84;;;14.13;57.62
48848;BME280;36611;51.638;5.784;2022-12-20T00:13:50;101298.22;;;14.13;57.58
48848;BME280;36611;51.638;5.784;2022-12-20T00:16:19;101290.31;;;14.10;57.64
48848;BME280;36611;51.638;5.784;2022-12-20T00:18:46;101287.63;;;14.10;57.49
48848;BME280;36611;51.638;5.784;2022-12-20T00:21:16;101294.88;;;14.10;57.85
48848;BME280;36611;51.638;5.784;2022-12-20T00:23:42;101294.00;;;14.09;57.72
48848;BME280;36611;51.638;5.784;2022-12-20T00:26:15;101286.75;;;14.10;57.55
48848;BME280;36611;51.638;5.784;2022-12-20T00:28:43;101286.63;;;14.11;57.67
48848;BME280;36611;51.638;5.784;2022-12-20T00:31:12;101286.56;;;14.13;57.97
48848;BME280;36611;51.638;5.784;2022-12-20T00:33:40;101273.78;;;14.15;57.50
48848;BME280;36611;51.638;5.784;2022-12-20T00:36:07;101268.38;;;14.15;57.82
48848;BME280;36611;51.638;5.784;2022-12-20T00:38:34;101266.53;;;14.15;57.56
48848;BME280;36611;51.638;5.784;2022-12-20T00:41:05;101264.69;;;14.16;57.73
48848;BME280;36611;51.638;5.784;2022-12-20T00:43:35;101269.13;;;14.17;57.23
48848;BME280;36611;51.638;5.784;2022-12-20T00:46:03;101262.72;;;14.18;57.17
48848;BME280;36611;51.638;5.784;2022-12-20T00:48:31;101267.28;;;14.17;57.14
48848;BME280;36611;51.638;5.784;2022-12-20T00:51:04;101259.91;;;14.19;57.33
48848;BME280;36611;51.638;5.784;2022-12-20T00:53:32;101251.69;;;14.21;57.30
48848;BME280;36611;51.638;5.784;2022-12-20T00:55:59;101255.13;;;14.23;57.25
48848;BME280;36611;51.638;5.784;2022-12-20T00:58:26;101254.13;;;14.24;57.32
48848;BME280;36611;51.638;5.784;2022-12-20T01:00:54;101246.91;;;14.24;57.07
48848;BME280;36611;51.638;5.784;2022-12-20T01:03:22;101239.53;;;14.26;57.01
48848;BME280;36611;51.638;5.784;2022-12-20T01:05:56;101256.47;;;14.28;57.14
48848;BME280;36611;51.638;5.784;2022-12-20T01:08:24;101258.06;;;14.31;57.36
48848;BME280;36611;51.638;5.784;2022-12-20T01:11:10;101254.38;;;14.32;57.08
48848;BME280;36611;51.638;5.784;2022-12-20T01:13:42;101256.09;;;14.33;56.84
48848;BME280;36611;51.638;5.784;2022-12-20T01:16:13;101245.28;;;14.33;56.94
48848;BME280;36611;51.638;5.784;2022-12-20T01:18:40;101254.13;;;14.35;56.94
48848;BME280;36611;51.638;5.784;2022-12-20T01:21:09;101258.44;;;14.38;57.22
48848;BME280;36611;51.638;5.784;2022-12-20T01:23:36;101257.31;;;14.40;57.23
48848;BME280;36611;51.638;5.784;2022-12-20T01:26:04;101254.50;;;14.42;56.97
48848;BME280;36611;51.638;5.784;2022-12-20T01:28:35;101269.00;;;14.41;57.46
48848;BME280;36611;51.638;5.784;2022-12-20T01:31:10;101269.97;;;14.40;57.21
48848;BME280;36611;51.638;5.784;2022-12-20T01:33:38;101268.25;;;14.39;57.38
48848;BME280;36611;51.638;5.784;2022-12-20T01:36:11;101271.22;;;14.36;57.59
48848;BME280;36611;51.638;5.784;2022-12-20T01:38:38;101268.63;;;14.34;57.27
48848;BME280;36611;51.638;5.784;2022-12-20T01:41:05;101259.91;;;14.30;57.57
48848;BME280;36611;51.638;5.784;2022-12-20T01:46:16;101252.06;;;14.27;58.09
48848;BME280;36611;51.638;5.784;2022-12-20T01:48:49;101259.41;;;14.25;57.93
48848;BME280;36611;51.638;5.784;2022-12-20T01:51:18;101263.22;;;14.23;57.97
48848;BME280;36611;51.638;5.784;2022-12-20T01:53:46;101276.00;;;14.21;58.32
48848;BME280;36611;51.638;5.784;2022-12-20T01:56:14;101270.72;;;14.19;58.53
48848;BME280;36611;51.638;5.784;2022-12-20T01:58:41;101277.09;;;14.18;58.88
48848;BME280;36611;51.638;5.784;2022-12-20T02:01:07;101260.16;;;14.16;59.01
48848;BME280;36611;51.638;5.784;2022-12-20T02:03:34;101254.00;;;14.14;58.82
48848;BME280;36611;51.638;5.784;2022-12-20T02:06:19;101248.81;;;14.11;59.26
48848;BME280;36611;51.638;5.784;2022-12-20T02:08:47;101247.09;;;14.10;59.35
48848;BME280;36611;51.638;5.784;2022-12-20T02:16:29;101231.75;;;13.99;59.56
48848;BME280;36611;51.638;5.784;2022-12-20T02:22:28;101214.06;;;13.95;59.92
48848;BME280;36611;51.638;5.784;2022-12-20T02:28:25;101205.59;;;13.89;60.26
48848;BME280;36611;51.638;5.784;2022-12-20T02:30:59;101207.56;;;13.87;60.07
48848;BME280;36611;51.638;5.784;2022-12-20T02:33:29;101221.19;;;13.85;60.41
48848;BME280;36611;51.638;5.784;2022-12-20T02:35:56;101210.50;;;13.84;60.36
48848;BME280;36611;51.638;5.784;2022-12-20T02:38:31;101201.56;;;13.83;60.59
48848;BME280;36611;51.638;5.784;2022-12-20T02:41:17;101180.94;;;13.82;60.89
48848;BME280;36611;51.638;5.784;2022-12-20T02:43:48;101184.63;;;13.81;60.60
48848;BME280;36611;51.638;5.784;2022-12-20T02:46:37;101188.28;;;13.80;60.72
48848;BME280;36611;51.638;5.784;2022-12-20T02:49:12;101181.06;;;13.81;61.01
48848;BME280;36611;51.638;5.784;2022-12-20T02:51:42;101168.66;;;13.78;60.90
48848;BME280;36611;51.638;5.784;2022-12-20T02:54:10;101173.06;;;13.79;61.30
48848;BME280;36611;51.638;5.784;2022-12-20T02:59:28;101161.53;;;13.77;61.09
48848;BME280;36611;51.638;5.784;2022-12-20T03:01:58;101163.38;;;13.77;60.92
48848;BME280;36611;51.638;5.784;2022-12-20T03:04:27;101155.28;;;13.77;61.15
48848;BME280;36611;51.638;5.784;2022-12-20T03:06:57;101154.31;;;13.78;61.48
48848;BME280;36611;51.638;5.784;2022-12-20T03:09:24;101165.97;;;13.78;61.16
48848;BME280;36611;51.638;5.784;2022-12-20T03:11:51;101156.03;;;13.79;61.41
48848;BME280;36611;51.638;5.784;2022-12-20T03:14:19;101156.88;;;13.79;61.33
48848;BME280;36611;51.638;5.784;2022-12-20T03:16:47;101153.19;;;13.80;61.45
48848;BME280;36611;51.638;5.784;2022-12-20T03:19:14;101157.63;;;13.81;61.47
48848;BME280;36611;51.638;5.784;2022-12-20T03:21:40;101172.84;;;13.82;60.99
48848;BME280;36611;51.638;5.784;2022-12-20T03:24:07;101167.31;;;13.84;61.45
48848;BME280;36611;51.638;5.784;2022-12-20T03:26:36;101182.41;;;13.86;60.99
48848;BME280;36611;51.638;5.784;2022-12-20T03:29:03;101170.63;;;13.87;60.99
48848;BME280;36611;51.638;5.784;2022-12-20T03:31:30;101158.00;;;13.88;61.40
48848;BME280;36611;51.638;5.784;2022-12-20T03:33:57;101155.16;;;13.89;60.95
48848;BME280;36611;51.638;5.784;2022-12-20T03:36:24;101155.78;;;13.93;61.43
48848;BME280;36611;51.638;5.784;2022-12-20T03:38:56;101161.19;;;13.93;61.20
48848;BME280;36611;51.638;5.784;2022-12-20T03:41:25;101151.84;;;13.97;61.26
48848;BME280;36611;51.638;5.784;2022-12-20T03:43:52;101150.75;;;13.99;61.00
48848;BME280;36611;51.638;5.784;2022-12-20T03:46:20;101150.50;;;14.03;61.18
48848;BME280;36611;51.638;5.784;2022-12-20T03:48:47;101150.25;;;14.06;61.29
48848;BME280;36611;51.638;5.784;2022-12-20T03:51:14;101156.25;;;14.09;61.13
48848;BME280;36611;51.638;5.784;2022-12-20T03:53:40;101155.91;;;14.14;61.01
48848;BME280;36611;51.638;5.784;2022-12-20T03:56:10;101150.41;;;14.15;61.09
48848;BME280;36611;51.638;5.784;2022-12-20T03:58:38;101163.53;;;14.20;61.03
48848;BME280;36611;51.638;5.784;2022-12-20T04:01:24;101166.09;;;14.21;60.88
48848;BME280;36611;51.638;5.784;2022-12-20T04:03:54;101171.00;;;14.27;60.88
48848;BME280;36611;51.638;5.784;2022-12-20T04:06:21;101171.00;;;14.27;60.56
48848;BME280;36611;51.638;5.784;2022-12-20T04:08:49;101164.50;;;14.30;60.76
48848;BME280;36611;51.638;5.784;2022-12-20T04:11:23;101158.84;;;14.33;60.77
48848;BME280;36611;51.638;5.784;2022-12-20T04:13:59;101156.00;;;14.35;60.81
48848;BME280;36611;51.638;5.784;2022-12-20T04:16:27;101152.19;;;14.37;60.41
48848;BME280;36611;51.638;5.784;2022-12-20T04:18:55;101150.22;;;14.39;60.49
48848;BME280;36611;51.638;5.784;2022-12-20T04:21:24;101146.53;;;14.40;60.51
48848;BME280;36611;51.638;5.784;2022-12-20T04:23:53;101142.75;;;14.43;60.82
48848;BME280;36611;51.638;5.784;2022-12-20T04:26:23;101138.09;;;14.45;60.79
48848;BME280;36611;51.638;5.784;2022-12-20T04:28:50;101137.84;;;14.48;60.31
48848;BME280;36611;51.638;5.784;2022-12-20T04:31:17;101145.69;;;14.51;60.21
48848;BME280;36611;51.638;5.784;2022-12-20T04:33:49;101144.56;;;14.53;60.61
48848;BME280;36611;51.638;5.784;2022-12-20T04:36:18;101132.78;;;14.54;60.32
48848;BME280;36611;51.638;5.784;2022-12-20T04:38:44;101142.59;;;14.55;60.47
48848;BME280;36611;51.638;5.784;2022-12-20T04:41:11;101136.94;;;14.58;60.23
48848;BME280;36611;51.638;5.784;2022-12-20T04:43:55;101139.50;;;14.60;60.35
48848;BME280;36611;51.638;5.784;2022-12-20T04:46:28;101131.41;;;14.60;60.41
48848;BME280;36611;51.638;5.784;2022-12-20T04:48:56;101127.72;;;14.61;60.33
48848;BME280;36611;51.638;5.784;2022-12-20T04:51:26;101130.28;;;14.62;60.13
48848;BME280;36611;51.638;5.784;2022-12-20T04:53:53;101135.56;;;14.64;60.25
48848;BME280;36611;51.638;5.784;2022-12-20T04:56:28;101132.75;;;14.66;60.18
48848;BME280;36611;51.638;5.784;2022-12-20T04:59:01;101126.34;;;14.67;60.09
48848;BME280;36611;51.638;5.784;2022-12-20T05:01:29;101134.31;;;14.68;60.13
48848;BME280;36611;51.638;5.784;2022-12-20T05:03:56;101130.78;;;14.68;59.73
48848;BME280;36611;51.638;5.784;2022-12-20T05:06:24;101127.06;;;14.69;60.08
48848;BME280;36611;51.638;5.784;2022-12-20T05:08:51;101127.06;;;14.69;60.05
48848;BME280;36611;51.638;5.784;2022-12-20T05:11:17;101125.22;;;14.69;60.08
48848;BME280;36611;51.638;5.784;2022-12-20T05:13:45;101124.25;;;14.70;59.92
48848;BME280;36611;51.638;5.784;2022-12-20T05:16:15;101126.94;;;14.70;60.04
48848;BME280;36611;51.638;5.784;2022-12-20T05:18:42;101121.53;;;14.70;60.09
48848;BME280;36611;51.638;5.784;2022-12-20T05:21:15;101111.59;;;14.71;60.11
48848;BME280;36611;51.638;5.784;2022-12-20T05:24:01;101112.31;;;14.73;59.90
48848;BME280;36611;51.638;5.784;2022-12-20T05:26:59;101111.31;;;14.74;59.90
48848;BME280;36611;51.638;5.784;2022-12-20T05:29:26;101090.69;;;14.73;60.04
48848;BME280;36611;51.638;5.784;2022-12-20T05:31:53;101100.63;;;14.72;59.60
48848;BME280;36611;51.638;5.784;2022-12-20T05:34:20;101095.22;;;14.72;59.98
48848;BME280;36611;51.638;5.784;2022-12-20T05:36:51;101095.09;;;14.74;59.97
48848;BME280;36611;51.638;5.784;2022-12-20T05:39:19;101087.97;;;14.73;59.74
48848;BME280;36611;51.638;5.784;2022-12-20T05:41:47;101086.13;;;14.73;59.84
48848;BME280;36611;51.638;5.784;2022-12-20T05:44:15;101085.28;;;14.73;59.92
48848;BME280;36611;51.638;5.784;2022-12-20T05:46:46;101087.84;;;14.74;60.02
48848;BME280;36611;51.638;5.784;2022-12-20T05:49:19;101079.88;;;14.73;60.05
48848;BME280;36611;51.638;5.784;2022-12-20T05:51:46;101075.31;;;14.73;60.20
48848;BME280;36611;51.638;5.784;2022-12-20T05:54:19;101081.72;;;14.72;60.11
48848;BME280;36611;51.638;5.784;2022-12-20T05:56:54;101087.13;;;14.72;59.79
48848;BME280;36611;51.638;5.784;2022-12-20T05:59:30;101088.13;;;14.71;60.03
48848;BME280;36611;51.638;5.784;2022-12-20T06:01:56;101081.84;;;14.71;60.04
48848;BME280;36611;51.638;5.784;2022-12-20T06:04:23;101083.81;;;14.69;59.91
48848;BME280;36611;51.638;5.784;2022-12-20T06:06:51;101085.66;;;14.68;59.92
48848;BME280;36611;51.638;5.784;2022-12-20T06:09:18;101085.81;;;14.67;60.11
48848;BME280;36611;51.638;5.784;2022-12-20T06:12:05;101078.53;;;14.67;59.93
48848;BME280;36611;51.638;5.784;2022-12-20T06:14:33;101068.72;;;14.66;60.07
48848;BME280;36611;51.638;5.784;2022-12-20T06:17:00;101061.59;;;14.65;60.05
48848;BME280;36611;51.638;5.784;2022-12-20T06:19:28;101063.31;;;14.66;60.09
48848;BME280;36611;51.638;5.784;2022-12-20T06:21:56;101048.94;;;14.66;59.88
48848;BME280;36611;51.638;5.784;2022-12-20T06:24:35;101043.53;;;14.66;59.99
48848;BME280;36611;51.638;5.784;2022-12-20T06:27:04;101046.38;;;14.64;59.97
48848;BME280;36611;51.638;5.784;2022-12-20T06:29:32;101039.25;;;14.63;59.93
48848;BME280;36611;51.638;5.784;2022-12-20T06:32:07;101028.44;;;14.63;59.93
48848;BME280;36611;51.638;5.784;2022-12-20T06:34:36;101039.38;;;14.61;59.63
48848;BME280;36611;51.638;5.784;2022-12-20T06:37:02;101034.97;;;14.60;59.98
48848;BME280;36611;51.638;5.784;2022-12-20T06:39:32;101033.13;;;14.61;59.90
48848;BME280;36611;51.638;5.784;2022-12-20T06:42:03;101041.34;;;14.59;59.74
48848;BME280;36611;51.638;5.784;2022-12-20T06:44:33;101037.06;;;14.57;59.63
48848;BME280;36611;51.638;5.784;2022-12-20T06:47:00;101042.59;;;14.55;59.64
48848;BME280;36611;51.638;5.784;2022-12-20T06:49:27;101028.50;;;14.52;59.55
48848;BME280;36611;51.638;5.784;2022-12-20T06:51:56;101050.13;;;14.52;59.65
48848;BME280;36611;51.638;5.784;2022-12-20T06:54:32;101038.56;;;14.50;59.55
48848;BME280;36611;51.638;5.784;2022-12-20T06:56:59;101046.09;;;14.46;59.43
48848;BME280;36611;51.638;5.784;2022-12-20T06:59:25;101044.38;;;14.45;59.49
48848;BME280;36611;51.638;5.784;2022-12-20T07:01:52;101029.38;;;14.41;59.39
48848;BME280;36611;51.638;5.784;2022-12-20T07:04:19;101026.06;;;14.38;59.25
48848;BME280;36611;51.638;5.784;2022-12-20T07:06:46;101033.44;;;14.36;59.33
48848;BME280;36611;51.638;5.784;2022-12-20T07:09:13;101034.44;;;14.35;59.28
48848;BME280;36611;51.638;5.784;2022-12-20T07:11:40;101041.81;;;14.32;59.38
48848;BME280;36611;51.638;5.784;2022-12-20T07:14:09;101038.25;;;14.32;59.15
48848;BME280;36611;51.638;5.784;2022-12-20T07:16:36;101036.41;;;14.32;59.31
48848;BME280;36611;51.638;5.784;2022-12-20T07:19:03;101040.94;;;14.32;59.42
48848;BME280;36611;51.638;5.784;2022-12-20T07:21:30;101040.09;;;14.31;59.18
48848;BME280;36611;51.638;5.784;2022-12-20T07:23:57;101046.47;;;14.30;59.10
48848;BME280;36611;51.638;5.784;2022-12-20T07:26:23;101033.81;;;14.31;58.96
48848;BME280;36611;51.638;5.784;2022-12-20T07:28:50;101037.66;;;14.28;59.18
48848;BME280;36611;51.638;5.784;2022-12-20T07:31:17;101034.81;;;14.30;59.20
48848;BME280;36611;51.638;5.784;2022-12-20T07:33:43;101037.50;;;14.30;59.24
48848;BME280;36611;51.638;5.784;2022-12-20T07:36:11;101032.38;;;14.27;58.91
48848;BME280;36611;51.638;5.784;2022-12-20T07:38:39;101035.06;;;14.27;59.24
48848;BME280;36611;51.638;5.784;2022-12-20T07:41:13;101035.94;;;14.27;58.88
48848;BME280;36611;51.638;5.784;2022-12-20T07:43:41;101036.78;;;14.28;58.87
48848;BME280;36611;51.638;5.784;2022-12-20T07:46:09;101040.47;;;14.27;58.98
48848;BME280;36611;51.638;5.784;2022-12-20T07:48:38;101043.03;;;14.28;59.23
48848;BME280;36611;51.638;5.784;2022-12-20T07:51:07;101052.00;;;14.29;58.65
48848;BME280;36611;51.638;5.784;2022-12-20T07:53:38;101049.31;;;14.29;59.13
48848;BME280;36611;51.638;5.784;2022-12-20T07:56:06;101050.16;;;14.29;58.85
48848;BME280;36611;51.638;5.784;2022-12-20T07:58:36;101046.47;;;14.30;58.78
48848;BME280;36611;51.638;5.784;2022-12-20T08:01:06;101054.59;;;14.30;58.80
48848;BME280;36611;51.638;5.784;2022-12-20T08:03:41;101052.75;;;14.31;58.61
48848;BME280;36611;51.638;5.784;2022-12-20T08:06:09;101043.66;;;14.32;58.98
48848;BME280;36611;51.638;5.784;2022-12-20T08:08:41;101050.91;;;14.31;58.68
48848;BME280;36611;51.638;5.784;2022-12-20T08:11:10;101054.47;;;14.32;58.73
48848;BME280;36611;51.638;5.784;2022-12-20T08:13:38;101058.00;;;14.32;58.58
48848;BME280;36611;51.638;5.784;2022-12-20T08:16:12;101061.44;;;14.35;58.79
48848;BME280;36611;51.638;5.784;2022-12-20T08:18:38;101065.00;;;14.35;58.46
48848;BME280;36611;51.638;5.784;2022-12-20T08:21:05;101063.28;;;14.34;58.78
48848;BME280;36611;51.638;5.784;2022-12-20T08:23:32;101068.44;;;14.37;58.97
48848;BME280;36611;51.638;5.784;2022-12-20T08:26:01;101064.88;;;14.37;58.63
48848;BME280;36611;51.638;5.784;2022-12-20T08:28:28;101060.34;;;14.37;58.91
48848;BME280;36611;51.638;5.784;2022-12-20T08:31:03;101058.63;;;14.36;58.85
48848;BME280;36611;51.638;5.784;2022-12-20T08:33:31;101052.22;;;14.37;58.84
48848;BME280;36611;51.638;5.784;2022-12-20T08:36:00;101057.63;;;14.37;59.01
48848;BME280;36611;51.638;5.784;2022-12-20T08:38:29;101054.06;;;14.37;59.28
48848;BME280;36611;51.638;5.784;2022-12-20T08:41:10;101062.31;;;14.35;59.06
48848;BME280;36611;51.638;5.784;2022-12-20T08:43:38;101060.34;;;14.37;59.49
48848;BME280;36611;51.638;5.784;2022-12-20T08:46:06;101060.47;;;14.36;59.62
48848;BME280;36611;51.638;5.784;2022-12-20T08:48:34;101060.59;;;14.34;59.32
48848;BME280;36611;51.638;5.784;2022-12-20T08:51:03;101062.31;;;14.35;59.84
48848;BME280;36611;51.638;5.784;2022-12-20T08:53:31;101053.34;;;14.35;59.73
48848;BME280;36611;51.638;5.784;2022-12-20T08:56:10;101055.06;;;14.36;60.04
48848;BME280;36611;51.638;5.784;2022-12-20T08:58:38;101050.50;;;14.36;59.84
48848;BME280;36611;51.638;5.784;2022-12-20T09:01:07;101045.22;;;14.35;59.84
48848;BME280;36611;51.638;5.784;2022-12-20T09:03:35;101047.06;;;14.34;60.20
48848;BME280;36611;51.638;5.784;2022-12-20T09:06:10;101046.22;;;14.34;60.02
48848;BME280;36611;51.638;5.784;2022-12-20T09:08:38;101047.81;;;14.36;60.21
48848;BME280;36611;51.638;5.784;2022-12-20T09:11:07;101048.66;;;14.37;60.26
48848;BME280;36611;51.638;5.784;2022-12-20T09:13:34;101047.22;;;14.32;60.14
48848;BME280;36611;51.638;5.784;2022-12-20T09:16:10;101043.78;;;14.30;60.35
48848;BME280;36611;51.638;5.784;2022-12-20T09:18:37;101051.28;;;14.27;60.13
48848;BME280;36611;51.638;5.784;2022-12-20T09:21:05;101040.59;;;14.25;60.42
48848;BME280;36611;51.638;5.784;2022-12-20T09:23:33;101043.56;;;14.22;60.39
48848;BME280;36611;51.638;5.784;2022-12-20T09:26:11;101034.59;;;14.22;60.46
48848;BME280;36611;51.638;5.784;2022-12-20T09:28:39;101032.75;;;14.22;60.67
48848;BME280;36611;51.638;5.784;2022-12-20T09:31:09;101033.88;;;14.20;61.04
48848;BME280;36611;51.638;5.784;2022-12-20T09:33:37;101035.47;;;14.22;61.16
48848;BME280;36611;51.638;5.784;2022-12-20T09:36:04;101024.66;;;14.22;61.15
48848;BME280;36611;51.638;5.784;2022-12-20T09:38:31;101032.63;;;14.24;61.15
48848;BME280;36611;51.638;5.784;2022-12-20T09:41:00;101042.44;;;14.25;61.21
48848;BME280;36611;51.638;5.784;2022-12-20T09:43:27;101047.84;;;14.25;60.99
48848;BME280;36611;51.638;5.784;2022-12-20T09:45:57;101032.50;;;14.25;61.25
48848;BME280;36611;51.638;5.784;2022-12-20T09:48:29;101037.78;;;14.27;61.54
48848;BME280;36611;51.638;5.784;2022-12-20T09:56:36;101034.28;;;14.36;61.87
48848;BME280;36611;51.638;5.784;2022-12-20T09:59:14;101012.28;;;14.41;61.98
48848;BME280;36611;51.638;5.784;2022-12-20T10:01:46;101018.19;;;14.46;61.97
48848;BME280;36611;51.638;5.784;2022-12-20T10:07:04;101017.56;;;14.53;61.99
48848;BME280;36611;51.638;5.784;2022-12-20T10:25:41;101007.88;;;14.72;61.40
48848;BME280;36611;51.638;5.784;2022-12-20T10:28:14;101004.19;;;14.73;61.90
48848;BME280;36611;51.638;5.784;2022-12-20T10:30:42;101000.47;;;14.74;61.45
48848;BME280;36611;51.638;5.784;2022-12-20T10:33:19;101002.19;;;14.75;61.64
48848;BME280;36611;51.638;5.784;2022-12-20T10:35:47;100992.84;;;14.79;61.39
48848;BME280;36611;51.638;5.784;2022-12-20T10:38:14;100994.28;;;14.83;61.60
48848;BME280;36611;51.638;5.784;2022-12-20T10:40:46;100990.47;;;14.85;61.29
48848;BME280;36611;51.638;5.784;2022-12-20T10:43:42;100996.34;;;14.90;61.33
48848;BME280;36611;51.638;5.784;2022-12-20T10:46:10;100986.97;;;14.94;61.38
48848;BME280;36611;51.638;5.784;2022-12-20T10:48:40;100988.56;;;14.97;61.53
48848;BME280;36611;51.638;5.784;2022-12-20T10:54:01;100995.16;;;15.04;61.52
48848;BME280;36611;51.638;5.784;2022-12-20T10:56:31;100995.88;;;15.06;61.09
48848;BME280;36611;51.638;5.784;2022-12-20T11:01:28;101001.00;;;15.09;60.99
48848;BME280;36611;51.638;5.784;2022-12-20T11:04:02;100996.47;;;15.10;61.20
48848;BME280;36611;51.638;5.784;2022-12-20T11:11:59;100985.91;;;15.07;61.64
48848;BME280;36611;51.638;5.784;2022-12-20T11:14:26;100985.06;;;15.06;61.74
48848;BME280;36611;51.638;5.784;2022-12-20T11:17:27;100987.03;;;15.04;61.80
48848;BME280;36611;51.638;5.784;2022-12-20T11:22:50;100978.59;;;14.98;61.86
48848;BME280;36611;51.638;5.784;2022-12-20T11:31:30;100974.72;;;14.90;62.20
48848;BME280;36611;51.638;5.784;2022-12-20T11:53:06;100959.63;;;14.88;62.49
48848;BME280;36611;51.638;5.784;2022-12-20T11:55:40;100963.19;;;14.88;62.50
48848;BME280;36611;51.638;5.784;2022-12-20T12:01:03;100954.34;;;14.86;62.88
48848;BME280;36611;51.638;5.784;2022-12-20T12:03:34;100955.31;;;14.85;62.50
48848;BME280;36611;51.638;5.784;2022-12-20T12:08:56;100952.72;;;14.84;62.75
48848;BME280;36611;51.638;5.784;2022-12-20T12:11:30;100955.56;;;14.82;62.93
48848;BME280;36611;51.638;5.784;2022-12-20T12:14:29;100955.69;;;14.81;62.81
48848;BME280;36611;51.638;5.784;2022-12-20T12:17:04;100953.00;;;14.81;62.89
48848;BME280;36611;51.638;5.784;2022-12-20T12:19:35;100951.56;;;14.77;63.19
48848;BME280;36611;51.638;5.784;2022-12-20T12:22:11;100948.84;;;14.77;63.08
48848;BME280;36611;51.638;5.784;2022-12-20T12:24:45;100953.28;;;14.78;63.12
48848;BME280;36611;51.638;5.784;2022-12-20T12:27:25;100940.75;;;14.77;62.95
48848;BME280;36611;51.638;5.784;2022-12-20T12:29:53;100941.59;;;14.77;63.45
48848;BME280;36611;51.638;5.784;2022-12-20T12:32:37;100934.59;;;14.75;63.19
48848;BME280;36611;51.638;5.784;2022-12-20T12:43:46;100936.06;;;14.79;63.79
48848;BME280;36611;51.638;5.784;2022-12-20T12:46:19;100935.06;;;14.80;63.66
48848;BME280;36611;51.638;5.784;2022-12-20T12:51:26;100935.91;;;14.80;63.48
48848;BME280;36611;51.638;5.784;2022-12-20T12:54:02;100942.19;;;14.81;63.79
48848;BME280;36611;51.638;5.784;2022-12-20T12:56:35;100934.78;;;14.83;63.78
48848;BME280;36611;51.638;5.784;2022-12-20T13:04:25;100935.66;;;14.83;64.16
48848;BME280;36611;51.638;5.784;2022-12-20T13:06:58;100933.81;;;14.84;64.12
48848;BME280;36611;51.638;5.784;2022-12-20T13:11:54;100931.09;;;14.84;63.82
48848;BME280;36611;51.638;5.784;2022-12-20T13:19:53;100935.66;;;14.83;64.16
48848;BME280;36611;51.638;5.784;2022-12-20T13:22:25;100924.97;;;14.82;64.04
48848;BME280;36611;51.638;5.784;2022-12-20T13:27:35;100921.16;;;14.84;64.29
48848;BME280;36611;51.638;5.784;2022-12-20T13:38:00;100922.41;;;14.80;64.07
48848;BME280;36611;51.638;5.784;2022-12-20T13:40:39;100925.25;;;14.79;64.42
48848;BME280;36611;51.638;5.784;2022-12-20T13:45:50;100927.94;;;14.79;64.29
48848;BME280;36611;51.638;5.784;2022-12-20T13:48:24;100924.53;;;14.77;64.25
48848;BME280;36611;51.638;5.784;2022-12-20T13:50:54;100928.06;;;14.77;64.38
48848;BME280;36611;51.638;5.784;2022-12-20T13:53:25;100929.06;;;14.76;64.59
48848;BME280;36611;51.638;5.784;2022-12-20T13:55:53;100930.06;;;14.75;64.10
48848;BME280;36611;51.638;5.784;2022-12-20T13:58:29;100925.50;;;14.76;64.59
48848;BME280;36611;51.638;5.784;2022-12-20T14:01:04;100924.66;;;14.75;64.33
48848;BME280;36611;51.638;5.784;2022-12-20T14:03:43;100925.66;;;14.74;64.38
48848;BME280;36611;51.638;5.784;2022-12-20T14:06:13;100919.38;;;14.74;64.21
48848;BME280;36611;51.638;5.784;2022-12-20T14:08:43;100930.31;;;14.72;64.23
48848;BME280;36611;51.638;5.784;2022-12-20T14:11:16;100924.91;;;14.72;64.43
48848;BME280;36611;51.638;5.784;2022-12-20T14:14:00;100920.50;;;14.71;64.30
48848;BME280;36611;51.638;5.784;2022-12-20T14:16:31;100930.47;;;14.71;64.58
48848;BME280;36611;51.638;5.784;2022-12-20T14:19:05;100921.63;;;14.69;64.24
48848;BME280;36611;51.638;5.784;2022-12-20T14:21:38;100922.50;;;14.69;64.47
48848;BME280;36611;51.638;5.784;2022-12-20T14:24:15;100925.31;;;14.68;64.63
48848;BME280;36611;51.638;5.784;2022-12-20T14:26:47;100925.47;;;14.66;64.64
48848;BME280;36611;51.638;5.784;2022-12-20T14:29:21;100920.19;;;14.65;64.33
48848;BME280;36611;51.638;5.784;2022-12-20T14:31:50;100919.59;;;14.61;64.69
48848;BME280;36611;51.638;5.784;2022-12-20T14:34:24;100926.00;;;14.60;64.70
48848;BME280;36611;51.638;5.784;2022-12-20T14:40:15;100921.31;;;14.62;64.61
48848;BME280;36611;51.638;5.784;2022-12-20T14:42:43;100923.03;;;14.63;64.57
48848;BME280;36611;51.638;5.784;2022-12-20T14:47:49;100929.81;;;14.57;64.34
48848;BME280;36611;51.638;5.784;2022-12-20T14:50:19;100927.38;;;14.54;64.48
48848;BME280;36611;51.638;5.784;2022-12-20T14:52:47;100926.53;;;14.54;64.73
48848;BME280;36611;51.638;5.784;2022-12-20T14:55:22;100921.25;;;14.52;64.62
48848;BME280;36611;51.638;5.784;2022-12-20T14:57:53;100913.28;;;14.51;64.45
48848;BME280;36611;51.638;5.784;2022-12-20T15:05:36;100907.28;;;14.47;64.55
48848;BME280;36611;51.638;5.784;2022-12-20T15:10:54;100898.44;;;14.45;64.65
48848;BME280;36611;51.638;5.784;2022-12-20T15:15:53;100892.31;;;14.43;64.84
48848;BME280;36611;51.638;5.784;2022-12-20T15:18:20;100885.31;;;14.41;64.78
48848;BME280;36611;51.638;5.784;2022-12-20T15:20:54;100886.16;;;14.41;65.01
48848;BME280;36611;51.638;5.784;2022-12-20T15:23:24;100879.03;;;14.40;64.61
48848;BME280;36611;51.638;5.784;2022-12-20T15:25:51;100883.72;;;14.38;64.99
48848;BME280;36611;51.638;5.784;2022-12-20T15:28:21;100883.84;;;14.37;64.84